Scotstown, Canada
Current Conditions -  °F | °C
As of 12:00 AM on Saturday 25 Oct 2014 (Local Time) from CYSC Reporting Station
Clear Clear  
Wind Chill: 37°   Ceiling: Unl
Heat Index: 37°   Visibility: 9mi
Dew Point: 36°   Wind: 2mph
Humidity: 93%   Direction: 210°SSW
Pressure: 29.78"   Gusts: NA
Location:  45.53°N, 71.28°W
Report Text: CYSC 250400Z AUTO 21002KT 9SM CLR 03/02 A2978 RMK SLP093
Loading
Personal Weather Stations






























Interactive Weather Map
Tropical Storm Tracking
New forecast layout! Learn more

10-Day Weather Forecast

Advertisements
Track Severe Weather on mobile